createdAt,value
2023-01-10T04:56:23.030Z,8.99
2023-01-10T04:59:25.574Z,8.99
2023-01-10T05:02:27.828Z,8.71
2023-01-10T05:05:31.663Z,8.90
2023-01-10T05:08:34.682Z,8.99
2023-01-10T05:11:37.048Z,9.07
2023-01-10T05:14:39.205Z,8.88
2023-01-10T05:17:41.763Z,8.82
2023-01-10T05:20:43.855Z,8.71
2023-01-10T05:23:46.554Z,8.55
2023-01-10T05:26:48.642Z,8.58
2023-01-10T05:29:51.055Z,8.47
2023-01-10T05:32:53.244Z,8.46
2023-01-10T05:35:55.657Z,8.46
2023-01-10T05:38:57.820Z,8.46
2023-01-10T05:42:00.433Z,8.44
2023-01-10T05:45:02.654Z,8.38
2023-01-10T05:48:05.157Z,8.28
2023-01-10T05:51:07.560Z,8.51
2023-01-10T05:54:09.921Z,8.31
2023-01-10T05:57:12.289Z,8.53
2023-01-10T06:00:15.381Z,8.31
2023-01-10T06:03:18.255Z,8.33
2023-01-10T06:06:20.830Z,8.19
2023-01-10T06:09:23.207Z,8.12
2023-01-10T06:12:25.284Z,8.05
2023-01-10T06:15:28.109Z,8.21
2023-01-10T06:18:32.000Z,7.90
2023-01-10T06:21:34.721Z,7.95
2023-01-10T06:24:36.887Z,8.06
2023-01-10T06:27:43.378Z,7.93
2023-01-10T06:30:45.612Z,7.84
2023-01-10T06:33:50.380Z,7.76
2023-01-10T06:36:52.517Z,7.55
2023-01-10T06:39:54.944Z,7.52
2023-01-10T06:42:57.096Z,7.25
2023-01-10T06:45:59.516Z,7.30
2023-01-10T06:49:01.815Z,7.26
2023-01-10T06:52:04.349Z,7.23
2023-01-10T06:55:07.245Z,7.00
2023-01-10T06:58:09.688Z,7.10
2023-01-10T07:01:17.222Z,7.27
2023-01-10T07:04:19.660Z,7.40
2023-01-10T07:07:21.766Z,7.40
2023-01-10T07:10:24.186Z,7.34
2023-01-10T07:13:26.282Z,7.19
2023-01-10T07:16:28.746Z,7.35
2023-01-10T07:19:30.902Z,7.20
2023-01-10T07:22:33.347Z,7.63
2023-01-10T07:25:35.727Z,7.69
2023-01-10T07:28:38.074Z,7.87
2023-01-10T07:31:40.190Z,7.85
2023-01-10T07:34:42.549Z,7.79
2023-01-10T07:37:44.709Z,7.44
2023-01-10T07:40:47.295Z,7.23
2023-01-10T07:43:49.998Z,7.31
2023-01-10T07:46:52.381Z,7.20
2023-01-10T07:49:54.458Z,7.32
2023-01-10T07:52:58.729Z,7.35
2023-01-10T07:56:02.454Z,7.20
2023-01-10T07:59:04.922Z,7.19
2023-01-10T08:02:09.851Z,7.20
2023-01-10T08:05:12.666Z,6.87
2023-01-10T08:08:16.742Z,7.25
2023-01-10T08:11:19.325Z,7.07
2023-01-10T08:14:21.471Z,7.15
2023-01-10T08:17:24.001Z,6.96
2023-01-10T08:20:26.200Z,6.98
2023-01-10T08:23:28.670Z,7.03
2023-01-10T08:26:31.025Z,7.10
2023-01-10T08:29:33.481Z,6.95
2023-01-10T08:32:35.574Z,6.95
2023-01-10T08:35:39.666Z,7.01
2023-01-10T08:38:41.781Z,7.09
2023-01-10T08:41:44.195Z,6.87
2023-01-10T08:44:46.898Z,6.87
2023-01-10T08:47:49.247Z,6.76
2023-01-10T08:50:51.414Z,6.72
2023-01-10T08:53:53.798Z,6.64
2023-01-10T08:56:55.885Z,6.91
2023-01-10T08:59:58.214Z,6.88
2023-01-10T09:03:00.393Z,6.93
2023-01-10T09:06:02.976Z,6.77
2023-01-10T09:09:05.219Z,6.89
2023-01-10T09:12:27.728Z,6.83
2023-01-10T09:15:33.664Z,6.68
2023-01-10T09:18:36.142Z,6.62
2023-01-10T09:21:38.231Z,6.55
2023-01-10T09:24:41.721Z,6.54
2023-01-10T09:27:43.839Z,6.50
2023-01-10T09:30:46.735Z,6.61
2023-01-10T09:33:49.770Z,6.47
2023-01-10T09:36:54.105Z,6.47
2023-01-10T09:39:56.184Z,6.67
2023-01-10T09:43:32.014Z,6.66
2023-01-10T09:47:14.237Z,6.71
2023-01-10T09:50:36.117Z,6.80
2023-01-10T09:53:42.328Z,6.87
2023-01-10T09:56:48.144Z,6.59
2023-01-10T09:59:53.817Z,6.58
2023-01-10T10:02:57.809Z,6.63
2023-01-10T10:06:11.130Z,6.49
2023-01-10T10:09:16.377Z,6.75
2023-01-10T10:12:47.959Z,6.42
2023-01-10T10:16:24.051Z,6.38
2023-01-10T10:19:46.628Z,6.54
2023-01-10T10:23:11.311Z,6.57
2023-01-10T10:26:33.882Z,6.77
2023-01-10T10:30:04.536Z,6.56
2023-01-10T10:33:17.789Z,6.55
2023-01-10T10:36:23.876Z,6.69
2023-01-10T10:39:41.138Z,6.48
2023-01-10T10:42:47.272Z,6.46
2023-01-10T10:45:57.589Z,6.47
2023-01-10T10:49:23.600Z,6.61
2023-01-10T10:52:34.735Z,6.59
2023-01-10T10:55:38.417Z,6.62
2023-01-10T10:58:43.844Z,6.85
2023-01-10T11:01:49.600Z,6.61
2023-01-10T11:04:56.846Z,6.69
2023-01-10T11:08:03.847Z,6.56
2023-01-10T11:11:16.743Z,6.54
2023-01-10T11:14:46.719Z,6.29
2023-01-10T11:18:05.060Z,6.40
2023-01-10T11:21:15.340Z,6.74
2023-01-10T11:24:38.257Z,6.69
2023-01-10T11:27:48.389Z,6.65
2023-01-10T11:30:51.199Z,7.04
2023-01-10T11:33:53.594Z,7.05
2023-01-10T11:37:18.402Z,6.89
2023-01-10T11:40:20.889Z,6.96
2023-01-10T11:43:27.783Z,6.97
2023-01-10T11:46:29.919Z,7.22
2023-01-10T11:49:38.936Z,6.97
2023-01-10T11:52:44.975Z,6.89
2023-01-10T11:55:48.872Z,7.07
2023-01-10T11:58:51.510Z,7.41
2023-01-10T12:02:13.104Z,7.11
2023-01-10T12:05:21.589Z,6.88
2023-01-10T12:08:36.595Z,7.00
2023-01-10T12:11:39.042Z,7.19
2023-01-10T12:14:41.211Z,7.28
2023-01-10T12:17:43.574Z,7.50
2023-01-10T12:20:53.082Z,7.52
2023-01-10T12:23:59.576Z,7.30
2023-01-10T12:27:03.579Z,7.29
2023-01-10T12:30:13.238Z,7.49
2023-01-10T12:33:37.401Z,7.38
2023-01-10T12:36:45.691Z,7.20
2023-01-10T12:39:55.776Z,7.24
2023-01-10T12:43:33.492Z,6.95
2023-01-10T12:47:05.147Z,6.87
2023-01-10T12:50:15.060Z,7.27
2023-01-10T12:53:25.672Z,7.25
2023-01-10T12:56:30.413Z,7.30
2023-01-10T12:59:38.329Z,7.30
2023-01-10T13:02:45.369Z,7.30
2023-01-10T13:05:49.680Z,7.18
2023-01-10T13:08:53.847Z,6.99
2023-01-10T13:11:58.711Z,6.95
2023-01-10T13:15:11.117Z,7.14
2023-01-10T13:18:27.484Z,6.91
2023-01-10T13:21:32.776Z,6.79
2023-01-10T13:24:35.078Z,6.97
2023-01-10T13:27:37.581Z,7.22
2023-01-10T13:30:42.933Z,7.15
2023-01-10T13:33:55.890Z,7.26
2023-01-10T13:37:04.524Z,7.45
2023-01-10T13:40:07.713Z,7.28
2023-01-10T13:44:05.411Z,7.12
2023-01-10T13:47:09.427Z,7.23
2023-01-10T13:50:23.734Z,7.07
2023-01-10T13:53:44.540Z,7.09
2023-01-10T13:56:47.116Z,7.21
2023-01-10T14:00:22.331Z,7.27
2023-01-10T14:03:47.947Z,7.25
2023-01-10T14:06:55.329Z,7.11
2023-01-10T14:10:07.531Z,7.17
2023-01-10T14:13:20.746Z,7.02
2023-01-10T14:16:30.627Z,7.22
2023-01-10T14:19:34.357Z,7.32
2023-01-10T14:22:38.595Z,7.34
2023-01-10T14:25:42.615Z,7.52
2023-01-10T14:28:47.170Z,7.35
2023-01-10T14:31:55.467Z,7.41
2023-01-10T14:35:01.225Z,7.59
2023-01-10T14:38:04.202Z,7.48
2023-01-10T14:41:16.629Z,7.16
2023-01-10T14:44:26.045Z,7.09
2023-01-10T14:47:35.714Z,7.10
2023-01-10T14:50:37.795Z,7.15
2023-01-10T14:53:41.194Z,7.34
2023-01-10T14:56:45.791Z,7.31
2023-01-10T14:59:50.090Z,7.30
2023-01-10T15:02:52.180Z,7.12
2023-01-10T15:05:57.566Z,7.23
2023-01-10T15:09:00.687Z,7.45
2023-01-10T15:12:06.621Z,7.56
2023-01-10T15:15:16.846Z,7.57
2023-01-10T15:18:29.433Z,7.44
2023-01-10T15:21:31.707Z,7.67
2023-01-10T15:24:37.548Z,7.72
2023-01-10T15:27:45.687Z,7.42
2023-01-10T15:30:48.123Z,7.23
2023-01-10T15:33:56.504Z,7.34
2023-01-10T15:37:01.886Z,7.49
2023-01-10T15:40:07.390Z,7.25
2023-01-10T15:43:21.218Z,7.07
2023-01-10T15:46:26.758Z,7.13
2023-01-10T15:49:30.331Z,7.33
2023-01-10T15:52:32.593Z,7.22
2023-01-10T15:55:45.617Z,7.27
2023-01-10T15:58:48.802Z,7.14
2023-01-10T16:02:16.093Z,7.14
2023-01-10T16:05:18.639Z,7.10
2023-01-10T16:08:25.109Z,7.38
2023-01-10T16:12:00.207Z,7.36
2023-01-10T16:15:13.826Z,7.22
2023-01-10T16:18:16.214Z,7.42
2023-01-10T16:21:19.587Z,7.21
2023-01-10T16:24:24.680Z,7.20
2023-01-10T16:27:28.544Z,7.26
2023-01-10T16:30:33.275Z,7.39
2023-01-10T16:33:37.421Z,7.21
2023-01-10T16:36:41.233Z,7.24
2023-01-10T16:39:43.362Z,7.38
2023-01-10T16:43:04.016Z,7.37
2023-01-10T16:46:06.206Z,7.20
